Flight Briefing for CPX117

Departure Arrival
Daniel K Inouye International Airport (PHNL)
Click to view FAA NOTAMS
Los Angeles International Airport (KLAX)
Click to view FAA NOTAMS
Departure Time Arrival Time
N/A N/A
Aircraft Distance
B747-400BCF 2267nm
Departure METAR Arrival METAR
PHNL 232153Z 14012KT 10SM FEW025 FEW045 30/22 A3003 RMK AO2 SLP168 T03000217 $ KLAX 232202Z 24008G16KT 10SM FEW019 OVC030 17/11 A3000 RMK AO2 T01670106
Suggested Route
MKK4 CLUTS R465 CIVIT R585 AUDIA SNAXX RYDRR2


View recent IFR Routes data
Notes



Charts and Procedures

Charts for PHNL
No chart available
Charts for KLAX
No chart available

Windy.com Weather Map